createdAt,value
2019-05-26T00:01:20.912Z,14.80
2019-05-26T00:03:48.266Z,14.70
2019-05-26T00:06:15.549Z,14.70
2019-05-26T00:08:42.859Z,14.60
2019-05-26T00:11:10.152Z,14.50
2019-05-26T00:13:37.425Z,14.40
2019-05-26T00:16:04.675Z,14.30
2019-05-26T00:18:33.495Z,14.20
2019-05-26T00:21:01.066Z,14.20
2019-05-26T00:23:28.339Z,14.20
2019-05-26T00:25:55.670Z,14.20
2019-05-26T00:28:22.941Z,14.10
2019-05-26T00:30:50.230Z,14.00
2019-05-26T00:33:17.528Z,13.90
2019-05-26T00:35:44.772Z,13.90
2019-05-26T00:38:12.058Z,13.80
2019-05-26T00:40:39.331Z,13.70
2019-05-26T00:43:06.607Z,13.70
2019-05-26T00:45:33.922Z,13.70
2019-05-26T00:48:01.188Z,13.70
2019-05-26T00:50:28.539Z,13.70
2019-05-26T00:52:56.768Z,13.70
2019-05-26T00:55:24.234Z,13.70
2019-05-26T00:57:51.568Z,13.70
2019-05-26T01:00:37.114Z,13.70
2019-05-26T01:03:04.392Z,13.60
2019-05-26T01:05:32.012Z,13.50
2019-05-26T01:08:06.233Z,13.40
2019-05-26T01:10:28.577Z,13.30
2019-05-26T01:12:55.854Z,13.20
2019-05-26T01:15:23.098Z,13.20
2019-05-26T01:17:50.376Z,13.20
2019-05-26T01:20:18.031Z,13.30
2019-05-26T01:22:45.276Z,13.30
2019-05-26T01:25:12.873Z,13.30
2019-05-26T01:27:40.308Z,13.20
2019-05-26T01:30:08.460Z,13.20
2019-05-26T01:32:35.750Z,13.20
2019-05-26T01:35:03.598Z,13.20
2019-05-26T01:37:31.264Z,13.20
2019-05-26T01:39:58.701Z,13.20
2019-05-26T01:42:25.972Z,13.20
2019-05-26T01:44:53.265Z,13.20
2019-05-26T01:47:20.562Z,13.10
2019-05-26T01:49:47.753Z,13.10
2019-05-26T01:52:14.992Z,13.00
2019-05-26T01:54:42.281Z,13.00
2019-05-26T01:57:09.536Z,12.80
2019-05-26T01:59:36.859Z,12.70
2019-05-26T02:02:04.102Z,12.70
2019-05-26T02:04:31.419Z,12.70
2019-05-26T02:06:58.772Z,12.70
2019-05-26T02:09:26.024Z,12.70
2019-05-26T02:11:53.282Z,12.80
2019-05-26T02:14:20.528Z,12.80
2019-05-26T02:16:47.797Z,12.80
2019-05-26T02:19:15.415Z,12.80
2019-05-26T02:21:42.766Z,12.80
2019-05-26T02:24:10.063Z,12.80
2019-05-26T02:26:37.344Z,12.70
2019-05-26T02:29:04.620Z,12.70
2019-05-26T02:31:31.904Z,12.70
2019-05-26T02:33:59.412Z,12.70
2019-05-26T02:36:26.735Z,12.70
2019-05-26T02:39:02.081Z,12.60
2019-05-26T02:41:23.263Z,12.50
2019-05-26T02:43:50.601Z,12.40
2019-05-26T02:46:17.898Z,12.40
2019-05-26T02:48:45.145Z,12.30
2019-05-26T02:51:12.391Z,12.40
2019-05-26T02:53:39.666Z,12.40
2019-05-26T02:56:07.229Z,12.30
2019-05-26T02:58:34.504Z,12.20
2019-05-26T03:01:02.017Z,12.20
2019-05-26T03:03:29.252Z,12.20
2019-05-26T03:05:57.365Z,12.20
2019-05-26T03:08:25.221Z,12.10
2019-05-26T03:10:53.427Z,11.90
2019-05-26T03:13:20.731Z,11.90
2019-05-26T03:15:48.008Z,11.90
2019-05-26T03:18:16.078Z,11.90
2019-05-26T03:20:44.060Z,11.90
2019-05-26T03:25:38.767Z,12.00
2019-05-26T03:28:06.138Z,12.00
2019-05-26T03:30:33.464Z,12.00
2019-05-26T03:33:00.742Z,11.90
2019-05-26T03:35:28.069Z,11.80
2019-05-26T03:37:55.357Z,11.90
2019-05-26T03:40:22.621Z,11.80
2019-05-26T03:42:49.933Z,11.90
2019-05-26T03:45:23.424Z,11.80
2019-05-26T03:47:50.714Z,11.80
2019-05-26T03:52:45.402Z,11.70
2019-05-26T03:55:12.853Z,11.70
2019-05-26T03:57:40.081Z,11.70
2019-05-26T04:00:07.790Z,11.70
2019-05-26T04:02:35.077Z,11.80
2019-05-26T04:05:02.884Z,11.80
2019-05-26T04:07:30.147Z,11.80
2019-05-26T04:10:04.636Z,11.80
2019-05-26T04:12:26.864Z,11.80
2019-05-26T04:14:54.160Z,11.90
2019-05-26T04:17:21.425Z,11.90
2019-05-26T04:19:48.741Z,11.90
2019-05-26T04:22:16.066Z,11.90
2019-05-26T04:24:43.345Z,12.00
2019-05-26T04:27:10.598Z,12.10
2019-05-26T04:29:37.881Z,12.10
2019-05-26T04:32:05.119Z,12.00
2019-05-26T04:34:32.649Z,12.10
2019-05-26T04:36:59.999Z,12.10
2019-05-26T04:39:27.241Z,12.10
2019-05-26T04:41:54.541Z,12.20
2019-05-26T04:44:21.794Z,12.30
2019-05-26T04:46:49.084Z,12.30
2019-05-26T04:49:16.400Z,12.30
2019-05-26T04:51:43.676Z,12.40
2019-05-26T04:54:10.952Z,12.50
2019-05-26T04:56:38.241Z,12.50
2019-05-26T04:59:05.488Z,12.60
2019-05-26T05:01:32.772Z,12.60
2019-05-26T05:04:00.019Z,12.60
2019-05-26T05:06:27.298Z,12.70
2019-05-26T05:08:54.586Z,12.80
2019-05-26T05:11:21.862Z,12.80
2019-05-26T05:13:49.117Z,12.80
2019-05-26T05:16:16.396Z,12.90
2019-05-26T05:18:43.634Z,12.90
2019-05-26T05:21:10.904Z,12.90
2019-05-26T05:23:38.160Z,13.00
2019-05-26T05:26:05.436Z,13.20
2019-05-26T05:28:32.703Z,13.30
2019-05-26T05:30:59.988Z,13.70
2019-05-26T05:33:27.261Z,13.70
2019-05-26T05:35:54.524Z,13.90
2019-05-26T05:38:21.752Z,14.10
2019-05-26T05:40:59.032Z,14.20
2019-05-26T05:43:18.218Z,14.20
2019-05-26T05:45:45.500Z,14.10
2019-05-26T05:48:12.768Z,14.30
2019-05-26T05:50:40.036Z,14.40
2019-05-26T05:53:07.315Z,14.80
2019-05-26T05:55:34.546Z,14.80
2019-05-26T05:58:01.862Z,15.10
2019-05-26T06:00:29.144Z,15.10
2019-05-26T06:02:56.417Z,15.10
2019-05-26T06:05:23.705Z,15.30
2019-05-26T06:07:50.959Z,15.30
2019-05-26T06:10:18.277Z,15.30
2019-05-26T06:12:45.531Z,15.40
2019-05-26T06:15:15.386Z,14.90
2019-05-26T06:17:42.514Z,15.10
2019-05-26T06:20:10.391Z,15.00
2019-05-26T06:22:37.944Z,15.30
2019-05-26T06:25:05.722Z,15.30
2019-05-26T06:27:33.037Z,15.20
2019-05-26T06:30:00.326Z,15.20
2019-05-26T06:32:27.613Z,15.30
2019-05-26T06:34:54.946Z,15.50
2019-05-26T06:37:22.182Z,15.50
2019-05-26T06:39:49.461Z,15.80
2019-05-26T06:42:16.724Z,16.20
2019-05-26T06:44:52.983Z,16.30
2019-05-26T06:47:13.162Z,16.50
2019-05-26T06:49:40.417Z,16.70
2019-05-26T06:52:07.718Z,16.40
2019-05-26T06:54:34.984Z,16.50
2019-05-26T06:57:02.236Z,16.50
2019-05-26T06:59:29.569Z,16.40
2019-05-26T07:01:56.813Z,16.60
2019-05-26T07:04:24.059Z,16.70
2019-05-26T07:06:51.374Z,17.10
2019-05-26T07:09:18.733Z,17.50
2019-05-26T07:11:55.620Z,17.40
2019-05-26T07:14:15.207Z,17.40
2019-05-26T07:16:42.443Z,17.20
2019-05-26T07:19:09.744Z,17.00
2019-05-26T07:21:37.373Z,17.10
2019-05-26T07:24:04.704Z,17.20
2019-05-26T07:26:33.251Z,17.10
2019-05-26T07:29:00.783Z,17.10
2019-05-26T07:31:27.976Z,17.20
2019-05-26T07:33:55.459Z,17.50
2019-05-26T07:36:22.835Z,17.40
2019-05-26T07:38:50.130Z,17.60
2019-05-26T07:41:17.479Z,17.60
2019-05-26T07:43:44.772Z,17.50
2019-05-26T07:46:12.121Z,17.50
2019-05-26T07:48:39.484Z,17.70
2019-05-26T07:51:07.101Z,18.20
2019-05-26T07:53:34.413Z,18.50
2019-05-26T07:56:01.721Z,18.70
2019-05-26T07:58:29.037Z,18.80
2019-05-26T08:00:56.569Z,19.00
2019-05-26T08:03:23.870Z,19.30
2019-05-26T08:05:51.144Z,19.40
2019-05-26T08:08:18.472Z,19.60
2019-05-26T08:10:45.742Z,19.70
2019-05-26T08:13:13.040Z,19.40
2019-05-26T08:15:40.392Z,19.40
2019-05-26T08:18:07.887Z,19.70
2019-05-26T08:20:35.144Z,19.80
2019-05-26T08:23:02.520Z,19.60
2019-05-26T08:25:29.796Z,19.10
2019-05-26T08:27:57.499Z,19.20
2019-05-26T08:32:52.175Z,20.10
2019-05-26T08:35:19.418Z,19.80
2019-05-26T08:37:46.995Z,20.10
2019-05-26T08:40:17.307Z,20.40
2019-05-26T08:42:45.238Z,21.00
2019-05-26T08:47:40.030Z,20.60
2019-05-26T08:50:07.458Z,20.80
2019-05-26T08:55:01.980Z,20.40
2019-05-26T08:57:29.272Z,20.30
2019-05-26T08:59:56.609Z,19.90
2019-05-26T09:02:24.164Z,20.00
2019-05-26T09:04:51.557Z,20.70
2019-05-26T09:07:18.824Z,21.20
2019-05-26T09:09:46.145Z,20.80
2019-05-26T09:12:13.465Z,20.60
2019-05-26T09:17:08.271Z,21.40
2019-05-26T09:19:35.604Z,21.60
2019-05-26T09:22:02.879Z,21.90
2019-05-26T09:24:30.141Z,21.90
2019-05-26T09:26:57.412Z,21.60
2019-05-26T09:29:24.736Z,21.30
2019-05-26T09:31:52.029Z,21.30
2019-05-26T09:34:19.562Z,21.90
2019-05-26T09:36:46.948Z,22.40
2019-05-26T09:39:14.216Z,21.80
2019-05-26T09:44:08.751Z,22.10
2019-05-26T09:46:36.047Z,21.70
2019-05-26T09:49:03.299Z,21.70
2019-05-26T09:51:31.351Z,22.30
2019-05-26T09:54:01.714Z,22.40
2019-05-26T09:56:28.146Z,22.10
2019-05-26T09:58:55.452Z,22.30
2019-05-26T10:01:22.894Z,22.80
2019-05-26T10:03:50.253Z,23.20
2019-05-26T10:06:17.540Z,23.10
2019-05-26T10:11:12.213Z,23.10
2019-05-26T10:13:39.498Z,23.60
2019-05-26T10:16:06.797Z,23.60
2019-05-26T10:18:34.136Z,24.00
2019-05-26T10:21:01.341Z,24.00
2019-05-26T10:23:28.682Z,24.30
2019-05-26T10:25:56.000Z,24.40
2019-05-26T10:28:23.336Z,24.40
2019-05-26T10:30:50.794Z,24.60
2019-05-26T10:33:18.100Z,24.30
2019-05-26T10:35:45.385Z,24.00
2019-05-26T10:38:12.784Z,24.00
2019-05-26T10:40:40.056Z,23.80
2019-05-26T10:43:07.589Z,23.80
2019-05-26T10:45:34.924Z,23.70
2019-05-26T10:48:02.288Z,23.30
2019-05-26T10:50:29.821Z,23.50
2019-05-26T10:52:57.145Z,23.60
2019-05-26T10:55:24.429Z,23.70
2019-05-26T10:57:51.723Z,24.20
2019-05-26T11:00:19.448Z,24.30
2019-05-26T11:02:46.892Z,23.90
2019-05-26T11:05:15.393Z,23.70
2019-05-26T11:07:42.773Z,24.20
2019-05-26T11:10:10.287Z,24.00
2019-05-26T11:12:37.829Z,24.10
2019-05-26T11:15:05.550Z,24.50
2019-05-26T11:17:33.196Z,24.80
2019-05-26T11:22:27.871Z,24.40
2019-05-26T11:24:55.144Z,24.30
2019-05-26T11:27:22.480Z,24.60
2019-05-26T11:29:49.741Z,24.40
2019-05-26T11:32:16.988Z,24.30
2019-05-26T11:34:44.318Z,24.00
2019-05-26T11:37:11.924Z,24.20
2019-05-26T11:39:39.184Z,24.50
2019-05-26T11:42:13.395Z,24.10
2019-05-26T11:44:35.632Z,24.40
2019-05-26T11:47:02.967Z,24.60
2019-05-26T11:49:30.325Z,24.60
2019-05-26T11:51:57.525Z,24.70
2019-05-26T11:54:24.857Z,25.00
2019-05-26T11:56:52.119Z,24.80
2019-05-26T12:01:46.689Z,24.50
2019-05-26T12:04:14.320Z,25.10
2019-05-26T12:06:41.585Z,24.60
2019-05-26T12:09:08.715Z,24.30
2019-05-26T12:11:36.083Z,24.20
2019-05-26T12:14:03.702Z,24.30
2019-05-26T12:16:31.016Z,24.30
2019-05-26T12:18:58.310Z,23.80
2019-05-26T12:21:25.602Z,23.90
2019-05-26T12:23:55.040Z,24.50
2019-05-26T12:26:22.342Z,24.50
2019-05-26T12:28:49.793Z,24.80
2019-05-26T12:31:17.024Z,25.00
2019-05-26T12:33:44.350Z,24.90
2019-05-26T12:36:11.653Z,24.30
2019-05-26T12:38:50.016Z,24.30
2019-05-26T12:41:17.959Z,24.50
2019-05-26T12:43:45.247Z,24.60
2019-05-26T12:46:12.527Z,24.90
2019-05-26T12:48:39.748Z,25.30
2019-05-26T12:51:07.098Z,24.80
2019-05-26T12:53:34.519Z,24.40
2019-05-26T12:56:01.932Z,24.40
2019-05-26T12:58:29.363Z,24.90
2019-05-26T13:00:56.722Z,25.10
2019-05-26T13:03:24.025Z,25.20
2019-05-26T13:05:51.324Z,25.60
2019-05-26T13:08:18.652Z,25.80
2019-05-26T13:10:46.084Z,25.50
2019-05-26T13:15:40.672Z,24.70
2019-05-26T13:18:07.969Z,24.10
2019-05-26T13:20:35.244Z,23.40
2019-05-26T13:23:02.560Z,23.40
2019-05-26T13:25:29.814Z,23.80
2019-05-26T13:30:24.726Z,25.30
2019-05-26T13:32:52.030Z,25.10
2019-05-26T13:35:20.014Z,24.30
2019-05-26T13:37:47.088Z,24.20
2019-05-26T13:40:14.880Z,24.00
2019-05-26T13:42:42.106Z,24.00
2019-05-26T13:45:21.818Z,24.20
2019-05-26T13:47:39.560Z,24.40
2019-05-26T13:50:08.410Z,24.20
2019-05-26T13:52:35.625Z,24.40
2019-05-26T13:55:03.502Z,24.40
2019-05-26T13:57:30.810Z,24.30
2019-05-26T13:59:58.377Z,24.20
2019-05-26T14:02:25.505Z,24.30
2019-05-26T14:04:52.833Z,24.40
2019-05-26T14:07:20.190Z,24.60
2019-05-26T14:09:47.470Z,24.90
2019-05-26T14:12:14.737Z,24.90
2019-05-26T14:14:42.043Z,24.90
2019-05-26T14:17:09.795Z,24.90
2019-05-26T14:19:38.201Z,25.20
2019-05-26T14:22:05.757Z,25.70
2019-05-26T14:24:33.094Z,25.70
2019-05-26T14:27:00.349Z,24.80
2019-05-26T14:29:27.649Z,24.40
2019-05-26T14:31:54.934Z,24.80
2019-05-26T14:34:22.205Z,25.20
2019-05-26T14:36:49.713Z,25.70
2019-05-26T14:39:17.163Z,25.60
2019-05-26T14:41:44.405Z,25.10
2019-05-26T14:44:11.698Z,25.30
2019-05-26T14:46:38.949Z,25.50
2019-05-26T14:49:06.268Z,26.00
2019-05-26T14:51:33.478Z,26.50
2019-05-26T14:54:00.778Z,26.60
2019-05-26T14:56:27.877Z,25.90
2019-05-26T14:58:55.093Z,25.80
2019-05-26T15:01:22.481Z,25.60
2019-05-26T15:03:49.643Z,26.10
2019-05-26T15:06:16.943Z,26.50
2019-05-26T15:08:44.321Z,25.40
2019-05-26T15:11:11.576Z,25.10
2019-05-26T15:16:10.247Z,26.10
2019-05-26T15:18:35.297Z,26.60
2019-05-26T15:21:02.705Z,26.60
2019-05-26T15:23:30.013Z,26.80
2019-05-26T15:25:57.343Z,26.90
2019-05-26T15:28:24.707Z,27.00
2019-05-26T15:30:51.996Z,27.00
2019-05-26T15:33:19.294Z,27.00
2019-05-26T15:35:46.565Z,26.90
2019-05-26T15:38:13.945Z,27.10
2019-05-26T15:40:41.201Z,27.20
2019-05-26T15:43:08.491Z,27.00
2019-05-26T15:45:35.799Z,26.70
2019-05-26T15:48:03.092Z,26.60
2019-05-26T15:50:30.378Z,26.40
2019-05-26T15:52:57.637Z,26.30
2019-05-26T15:55:24.957Z,26.40
2019-05-26T15:57:52.066Z,26.40
2019-05-26T16:00:19.321Z,26.50
2019-05-26T16:02:46.622Z,26.60
2019-05-26T16:05:14.217Z,26.40
2019-05-26T16:10:08.899Z,26.10
2019-05-26T16:12:36.053Z,26.00
2019-05-26T16:15:03.906Z,25.80
2019-05-26T16:17:31.048Z,25.80
2019-05-26T16:19:58.321Z,25.70
2019-05-26T16:22:25.418Z,25.50
2019-05-26T16:24:52.514Z,25.40
2019-05-26T16:29:47.427Z,24.90
2019-05-26T16:32:14.704Z,25.00
2019-05-26T16:34:42.041Z,24.70
2019-05-26T16:37:09.308Z,24.50
2019-05-26T16:39:37.536Z,24.50
2019-05-26T16:42:04.996Z,24.40
2019-05-26T16:44:32.282Z,24.40
2019-05-26T16:46:59.593Z,24.60
2019-05-26T16:49:26.855Z,24.60
2019-05-26T16:51:54.154Z,24.40
2019-05-26T16:54:21.464Z,24.30
2019-05-26T16:56:48.708Z,24.00
2019-05-26T16:59:16.233Z,23.50
2019-05-26T17:01:43.573Z,23.40
2019-05-26T17:04:10.943Z,23.50
2019-05-26T17:06:38.070Z,23.90
2019-05-26T17:09:07.114Z,24.00
2019-05-26T17:11:34.413Z,24.00
2019-05-26T17:14:01.700Z,24.20
2019-05-26T17:16:28.981Z,24.20
2019-05-26T17:18:56.303Z,24.40
2019-05-26T17:21:23.649Z,24.40
2019-05-26T17:23:51.033Z,24.50
2019-05-26T17:26:18.341Z,24.50
2019-05-26T17:28:45.612Z,24.60
2019-05-26T17:31:13.120Z,24.50
2019-05-26T17:33:40.528Z,24.40
2019-05-26T17:36:07.809Z,24.40
2019-05-26T17:38:35.096Z,24.30
2019-05-26T17:43:29.569Z,24.00
2019-05-26T17:45:56.837Z,23.90
2019-05-26T17:48:24.130Z,23.90
2019-05-26T17:50:51.361Z,24.00
2019-05-26T17:53:18.672Z,23.90
2019-05-26T17:55:45.826Z,23.70
2019-05-26T17:58:13.045Z,23.60
2019-05-26T18:00:40.625Z,23.50
2019-05-26T18:03:07.834Z,23.50
2019-05-26T18:05:35.050Z,23.50
2019-05-26T18:08:02.356Z,23.50
2019-05-26T18:10:29.726Z,23.50
2019-05-26T18:12:57.077Z,23.50
2019-05-26T18:15:24.501Z,23.40
2019-05-26T18:17:51.804Z,23.30
2019-05-26T18:20:19.284Z,23.00
2019-05-26T18:22:46.686Z,23.00
2019-05-26T18:25:14.273Z,22.90
2019-05-26T18:27:41.834Z,22.70
2019-05-26T18:30:09.346Z,22.50
2019-05-26T18:32:36.463Z,22.20
2019-05-26T18:35:04.450Z,22.10
2019-05-26T18:37:31.745Z,22.00
2019-05-26T18:39:59.033Z,21.90
2019-05-26T18:42:26.398Z,21.80
2019-05-26T18:44:53.713Z,21.70
2019-05-26T18:47:20.965Z,21.60
2019-05-26T18:49:48.306Z,21.50
2019-05-26T18:52:15.500Z,21.30
2019-05-26T18:54:42.793Z,21.20
2019-05-26T18:57:10.087Z,21.20
2019-05-26T18:59:37.401Z,21.00
2019-05-26T19:02:04.756Z,20.80
2019-05-26T19:04:32.053Z,20.60
2019-05-26T19:06:59.345Z,20.40
2019-05-26T19:09:26.646Z,20.30
2019-05-26T19:11:53.945Z,20.30
2019-05-26T19:14:21.512Z,20.20
2019-05-26T19:16:48.881Z,20.10
2019-05-26T19:19:16.204Z,20.00
2019-05-26T19:21:43.492Z,19.80
2019-05-26T19:24:10.771Z,19.80
2019-05-26T19:26:38.324Z,19.70
2019-05-26T19:29:05.676Z,19.60
2019-05-26T19:31:32.951Z,19.50
2019-05-26T19:34:00.307Z,19.50
2019-05-26T19:36:27.557Z,19.40
2019-05-26T19:38:54.886Z,19.40
2019-05-26T19:41:22.207Z,19.30
2019-05-26T19:43:49.617Z,19.20
2019-05-26T19:46:16.915Z,19.10
2019-05-26T19:48:44.180Z,19.00
2019-05-26T19:51:11.507Z,18.90
2019-05-26T19:53:38.864Z,18.90
2019-05-26T19:56:06.146Z,18.70
2019-05-26T19:58:33.400Z,18.60
2019-05-26T20:01:00.721Z,18.50
2019-05-26T20:03:28.245Z,18.40
2019-05-26T20:05:55.980Z,18.30
2019-05-26T20:08:23.304Z,18.30
2019-05-26T20:10:50.646Z,18.20
2019-05-26T20:13:17.944Z,18.10
2019-05-26T20:15:45.472Z,18.00
2019-05-26T20:18:13.296Z,17.90
2019-05-26T20:20:40.661Z,17.80
2019-05-26T20:23:07.957Z,17.70
2019-05-26T20:25:35.304Z,17.70
2019-05-26T20:28:02.561Z,17.70
2019-05-26T20:30:29.829Z,17.50
2019-05-26T20:32:57.105Z,17.50
2019-05-26T20:35:24.405Z,17.40
2019-05-26T20:37:51.729Z,17.40
2019-05-26T20:40:19.012Z,17.30
2019-05-26T20:42:46.290Z,17.20
2019-05-26T20:45:14.154Z,17.30
2019-05-26T20:47:41.494Z,17.20
2019-05-26T20:50:09.189Z,17.10
2019-05-26T20:52:36.737Z,17.00
2019-05-26T20:55:04.233Z,16.90
2019-05-26T20:57:31.582Z,16.70
2019-05-26T20:59:58.932Z,16.60
2019-05-26T21:02:26.301Z,16.50
2019-05-26T21:04:53.609Z,16.40
2019-05-26T21:07:20.900Z,16.40
2019-05-26T21:09:48.509Z,16.40
2019-05-26T21:12:15.789Z,16.40
2019-05-26T21:14:43.073Z,16.30
2019-05-26T21:17:10.433Z,16.30
2019-05-26T21:19:37.748Z,16.20
2019-05-26T21:22:05.025Z,16.20
2019-05-26T21:24:32.328Z,16.10
2019-05-26T21:26:59.698Z,16.00
2019-05-26T21:29:27.001Z,16.00
2019-05-26T21:31:54.345Z,16.00
2019-05-26T21:34:21.673Z,15.90
2019-05-26T21:36:48.960Z,15.90
2019-05-26T21:39:16.249Z,15.90
2019-05-26T21:41:43.552Z,15.70
2019-05-26T21:44:11.002Z,15.60
2019-05-26T21:46:38.486Z,15.60
2019-05-26T21:49:05.802Z,15.60
2019-05-26T21:51:33.049Z,15.50
2019-05-26T21:54:00.456Z,15.50
2019-05-26T21:56:27.757Z,15.50
2019-05-26T21:58:55.009Z,15.40
2019-05-26T22:01:22.300Z,15.40
2019-05-26T22:03:49.574Z,15.30
2019-05-26T22:06:19.961Z,15.30
2019-05-26T22:08:46.258Z,15.30
2019-05-26T22:11:13.616Z,15.30
2019-05-26T22:13:40.889Z,15.20
2019-05-26T22:16:08.165Z,15.20
2019-05-26T22:18:35.427Z,15.10
2019-05-26T22:21:02.733Z,15.00
2019-05-26T22:23:30.094Z,15.00
2019-05-26T22:25:57.444Z,14.90
2019-05-26T22:28:24.710Z,14.90
2019-05-26T22:30:52.295Z,14.80
2019-05-26T22:33:19.597Z,14.80
2019-05-26T22:35:46.876Z,14.80
2019-05-26T22:38:14.141Z,14.70
2019-05-26T22:40:41.412Z,14.70
2019-05-26T22:43:08.670Z,14.60
2019-05-26T22:45:35.917Z,14.60
2019-05-26T22:48:03.241Z,14.60
2019-05-26T22:50:30.517Z,14.60
2019-05-26T22:52:57.815Z,14.60
2019-05-26T22:55:25.086Z,14.60
2019-05-26T22:57:52.330Z,14.60
2019-05-26T23:00:19.709Z,14.60
2019-05-26T23:02:46.988Z,14.60
2019-05-26T23:05:14.314Z,14.50
2019-05-26T23:07:41.594Z,14.50
2019-05-26T23:10:10.389Z,14.40
2019-05-26T23:12:37.668Z,14.40
2019-05-26T23:15:05.274Z,14.30
2019-05-26T23:17:32.509Z,14.30
2019-05-26T23:19:59.785Z,14.30
2019-05-26T23:22:27.809Z,14.30
2019-05-26T23:24:55.165Z,14.30
2019-05-26T23:27:22.497Z,14.30
2019-05-26T23:29:49.784Z,14.20
2019-05-26T23:32:17.018Z,14.20
2019-05-26T23:34:44.305Z,14.20
2019-05-26T23:37:11.584Z,14.10
2019-05-26T23:39:38.861Z,14.00
2019-05-26T23:42:06.249Z,14.10
2019-05-26T23:44:33.528Z,14.10
2019-05-26T23:47:00.751Z,14.00
2019-05-26T23:49:28.281Z,13.90
2019-05-26T23:51:55.547Z,13.80
2019-05-26T23:54:22.859Z,13.70
2019-05-26T23:56:50.129Z,13.70
2019-05-26T23:59:17.393Z,13.70
